Nearby METAR Reports

 

YBUD - Bundaberg, Australia
Distance from station: SSW 6km
Updated: 20/10/2019 03:30
Overcast
Overcast
 Wind from WSW
Wind: WSW 4 km/h
Temperature: 20°C
Dew Point: 19°C
Humidity: 94%
Barometer: 1015 hPa
Clouds: Overcast
Visibility: 0 km
Cloud details: Overcast 30 m
2019/10/19 17:30 YBUD 191730Z AUTO 24002KT 0150 // OVC001 20/19 Q1015
YGLA - Gladstone, Australia
Distance from station: NW 159km
Updated: 20/10/2019 03:00
Overcast
Overcast
 Wind from SW
Wind: SW 7 km/h
Temperature: 22°C
Dew Point: 20°C
Humidity: 88%
Barometer: 1015 hPa
Clouds: Overcast
Visibility: 10 km
Cloud details: Overcast 3200 m
2019/10/19 17:00 YGLA 191700Z AUTO 22004KT 9999 // OVC105 22/20 Q1015 RF00.0/001.6
YBRK - Rockhampton Airp, Australia
Distance from station: NW 252km
Updated: 20/10/2019 03:00
Clear
Clear
 Wind from S
Wind: S 4 km/h
Temperature: 20°C
Dew Point: 19°C
Humidity: 94%
Barometer: 1015 hPa
Clouds: Clear
Visibility: 10 km
2019/10/19 17:00 YBRK 191700Z AUTO 18002KT 9999 // NCD 20/19 Q1015
 
YBBN - Brisbane Intl Ar, Australia
Distance from station: SSE 292km
Updated: 20/10/2019 03:30
Overcast
Overcast
 Wind from SW
Wind: SW 11 km/h
Temperature: 18°C
Dew Point: 18°C
Humidity: 100%
Barometer: 1014 hPa
Clouds: Overcast
Visibility: 8 km
Cloud details: Overcast 61 m
2019/10/19 17:30 YBBN 191730Z 23006KT 8000 OVC002 18/18 Q1014
YAMB - Amberley, Australia
Distance from station: S 312km
Updated: 20/10/2019 03:30
Light rain, Showers, Overcast
Light rain, Showers, Overcast
 Wind from NW
Wind: NW 9 km/h
Temperature: 12°C
Dew Point: 11°C
Humidity: 94%
Barometer: 1014 hPa
Summary: Light rain, Showers
Clouds: Overcast
Visibility: 0 km
Cloud details: Overcast 30 m
2019/10/19 17:30 YAMB 191730Z AUTO 32005KT 0050 -SHRA OVC001 12/11 Q1014
YBCG - Coolangatta Aws, Australia
Distance from station: SSE 386km
Updated: 20/10/2019 03:30
Mist, Partly cloudy
Mist, Partly cloudy
 Wind from WSW
Wind: WSW 9 km/h
Temperature: 14°C
Dew Point: 14°C
Humidity: 100%
Barometer: 1013 hPa
Summary: Mist
Clouds: Partly cloudy
Visibility: 4 km
Cloud details: Partly cloudy 91 m
2019/10/19 17:30 YBCG 191730Z AUTO 24005KT 4400 BR SCT003 14/14 Q1013